sensor_id;sensor_type;location;lat;lon;timestamp;noise_LAeq;noise_LA_min;noise_LA_max;noise_LA01;noise_LA95
41518;Laerm;27249;48.094;-1.690;2023-09-30T00:02:12;43.44;40.80;48.16;;
41518;Laerm;27249;48.094;-1.690;2023-09-30T00:04:37;51.34;41.96;63.73;;
41518;Laerm;27249;48.094;-1.690;2023-09-30T00:07:02;50.87;41.38;60.46;;
41518;Laerm;27249;48.094;-1.690;2023-09-30T00:09:28;47.72;40.53;59.79;;
41518;Laerm;27249;48.094;-1.690;2023-09-30T00:11:53;51.04;41.33;59.92;;
41518;Laerm;27249;48.094;-1.690;2023-09-30T00:14:20;49.97;41.53;63.45;;
41518;Laerm;27249;48.094;-1.690;2023-09-30T00:16:45;45.51;41.38;58.58;;
41518;Laerm;27249;48.094;-1.690;2023-09-30T00:19:10;47.46;41.53;56.76;;
41518;Laerm;27249;48.094;-1.690;2023-09-30T00:21:35;48.83;40.43;60.46;;
41518;Laerm;27249;48.094;-1.690;2023-09-30T00:24:01;46.68;40.62;57.49;;
41518;Laerm;27249;48.094;-1.690;2023-09-30T00:26:26;48.65;41.46;63.11;;
41518;Laerm;27249;48.094;-1.690;2023-09-30T00:28:51;51.52;42.16;66.30;;
41518;Laerm;27249;48.094;-1.690;2023-09-30T00:31:16;64.93;42.22;86.53;;
41518;Laerm;27249;48.094;-1.690;2023-09-30T00:33:42;47.47;41.38;56.91;;
41518;Laerm;27249;48.094;-1.690;2023-09-30T00:36:08;50.17;40.23;60.48;;
41518;Laerm;27249;48.094;-1.690;2023-09-30T00:38:33;50.15;41.89;61.46;;
41518;Laerm;27249;48.094;-1.690;2023-09-30T00:40:59;48.47;40.98;58.05;;
41518;Laerm;27249;48.094;-1.690;2023-09-30T00:43:24;43.57;40.89;52.34;;
41518;Laerm;27249;48.094;-1.690;2023-09-30T00:45:51;49.58;41.22;63.21;;
41518;Laerm;27249;48.094;-1.690;2023-09-30T00:48:22;48.27;41.75;58.35;;
41518;Laerm;27249;48.094;-1.690;2023-09-30T00:50:47;45.45;41.30;58.78;;
41518;Laerm;27249;48.094;-1.690;2023-09-30T00:53:12;45.68;41.53;55.40;;
41518;Laerm;27249;48.094;-1.690;2023-09-30T00:55:38;51.20;41.68;62.36;;
41518;Laerm;27249;48.094;-1.690;2023-09-30T00:58:03;50.90;41.96;62.50;;
41518;Laerm;27249;48.094;-1.690;2023-09-30T01:00:29;43.51;41.30;46.89;;
41518;Laerm;27249;48.094;-1.690;2023-09-30T01:02:54;45.67;40.71;58.82;;
41518;Laerm;27249;48.094;-1.690;2023-09-30T01:05:19;48.36;40.33;61.42;;
41518;Laerm;27249;48.094;-1.690;2023-09-30T01:07:46;45.94;40.98;58.79;;
41518;Laerm;27249;48.094;-1.690;2023-09-30T01:10:11;47.50;41.46;56.52;;
41518;Laerm;27249;48.094;-1.690;2023-09-30T01:12:36;48.47;41.14;58.85;;
41518;Laerm;27249;48.094;-1.690;2023-09-30T01:15:02;52.66;41.61;69.68;;
41518;Laerm;27249;48.094;-1.690;2023-09-30T01:17:30;46.30;40.62;56.93;;
41518;Laerm;27249;48.094;-1.690;2023-09-30T01:19:56;51.48;41.14;61.67;;
41518;Laerm;27249;48.094;-1.690;2023-09-30T01:22:22;45.08;41.46;55.98;;
41518;Laerm;27249;48.094;-1.690;2023-09-30T01:24:48;46.92;40.62;59.10;;
41518;Laerm;27249;48.094;-1.690;2023-09-30T01:27:13;43.46;40.80;47.81;;
41518;Laerm;27249;48.094;-1.690;2023-09-30T01:29:41;53.70;41.53;68.18;;
41518;Laerm;27249;48.094;-1.690;2023-09-30T01:32:07;47.16;40.53;60.52;;
41518;Laerm;27249;48.094;-1.690;2023-09-30T01:34:33;52.93;41.46;65.90;;
41518;Laerm;27249;48.094;-1.690;2023-09-30T01:36:59;48.50;40.71;63.13;;
41518;Laerm;27249;48.094;-1.690;2023-09-30T01:39:24;43.28;40.71;48.45;;
41518;Laerm;27249;48.094;-1.690;2023-09-30T01:41:49;51.11;40.71;66.74;;
41518;Laerm;27249;48.094;-1.690;2023-09-30T01:44:15;47.34;40.89;60.45;;
41518;Laerm;27249;48.094;-1.690;2023-09-30T01:46:40;49.86;41.06;63.25;;
41518;Laerm;27249;48.094;-1.690;2023-09-30T01:49:06;51.94;41.30;62.43;;
41518;Laerm;27249;48.094;-1.690;2023-09-30T01:51:31;47.20;40.98;65.70;;
41518;Laerm;27249;48.094;-1.690;2023-09-30T01:53:56;49.41;41.14;63.72;;
41518;Laerm;27249;48.094;-1.690;2023-09-30T01:56:21;49.04;41.14;61.69;;
41518;Laerm;27249;48.094;-1.690;2023-09-30T01:58:47;43.26;40.23;48.96;;
41518;Laerm;27249;48.094;-1.690;2023-09-30T02:01:12;47.86;41.06;60.02;;
41518;Laerm;27249;48.094;-1.690;2023-09-30T02:03:37;43.52;40.33;50.13;;
41518;Laerm;27249;48.094;-1.690;2023-09-30T02:06:03;43.24;39.70;50.58;;
41518;Laerm;27249;48.094;-1.690;2023-09-30T02:08:28;47.64;41.06;58.34;;
41518;Laerm;27249;48.094;-1.690;2023-09-30T02:10:54;43.54;41.14;48.28;;
41518;Laerm;27249;48.094;-1.690;2023-09-30T02:13:19;48.64;40.71;59.99;;
41518;Laerm;27249;48.094;-1.690;2023-09-30T02:15:45;48.65;41.30;58.98;;
41518;Laerm;27249;48.094;-1.690;2023-09-30T02:18:10;49.16;42.16;63.97;;
41518;Laerm;27249;48.094;-1.690;2023-09-30T02:20:36;49.03;40.80;60.90;;
41518;Laerm;27249;48.094;-1.690;2023-09-30T02:23:04;51.31;41.53;62.23;;
41518;Laerm;27249;48.094;-1.690;2023-09-30T02:25:31;51.91;41.68;68.16;;
41518;Laerm;27249;48.094;-1.690;2023-09-30T02:27:57;45.40;40.23;59.88;;
41518;Laerm;27249;48.094;-1.690;2023-09-30T02:30:22;46.19;40.43;60.83;;
41518;Laerm;27249;48.094;-1.690;2023-09-30T02:32:49;51.48;41.22;66.65;;
41518;Laerm;27249;48.094;-1.690;2023-09-30T02:35:14;46.81;40.33;57.00;;
41518;Laerm;27249;48.094;-1.690;2023-09-30T02:37:40;49.11;40.71;61.01;;
41518;Laerm;27249;48.094;-1.690;2023-09-30T02:40:06;51.71;41.30;62.11;;
41518;Laerm;27249;48.094;-1.690;2023-09-30T02:42:35;49.72;41.38;60.34;;
41518;Laerm;27249;48.094;-1.690;2023-09-30T02:45:00;50.51;40.89;67.88;;
41518;Laerm;27249;48.094;-1.690;2023-09-30T02:47:26;49.50;40.89;60.75;;
41518;Laerm;27249;48.094;-1.690;2023-09-30T02:49:51;51.08;40.71;62.53;;
41518;Laerm;27249;48.094;-1.690;2023-09-30T02:52:17;47.56;41.30;63.11;;
41518;Laerm;27249;48.094;-1.690;2023-09-30T02:54:42;48.29;41.06;60.94;;
41518;Laerm;27249;48.094;-1.690;2023-09-30T02:57:07;51.65;40.33;65.64;;
41518;Laerm;27249;48.094;-1.690;2023-09-30T02:59:34;47.85;41.14;58.95;;
41518;Laerm;27249;48.094;-1.690;2023-09-30T03:02:01;52.01;41.38;65.83;;
41518;Laerm;27249;48.094;-1.690;2023-09-30T03:04:26;48.71;40.33;60.58;;
41518;Laerm;27249;48.094;-1.690;2023-09-30T03:06:53;43.25;40.80;47.08;;
41518;Laerm;27249;48.094;-1.690;2023-09-30T03:09:21;45.91;40.71;58.43;;
41518;Laerm;27249;48.094;-1.690;2023-09-30T03:14:33;47.36;41.30;60.19;;
41518;Laerm;27249;48.094;-1.690;2023-09-30T03:16:59;51.77;41.30;70.42;;
41518;Laerm;27249;48.094;-1.690;2023-09-30T03:19:24;43.23;40.80;45.80;;
41518;Laerm;27249;48.094;-1.690;2023-09-30T03:21:50;45.77;39.92;59.82;;
41518;Laerm;27249;48.094;-1.690;2023-09-30T03:24:15;51.57;40.71;65.23;;
41518;Laerm;27249;48.094;-1.690;2023-09-30T03:26:41;44.05;40.62;51.40;;
41518;Laerm;27249;48.094;-1.690;2023-09-30T03:29:07;47.43;40.53;61.43;;
41518;Laerm;27249;48.094;-1.690;2023-09-30T03:31:33;48.57;41.46;60.55;;
41518;Laerm;27249;48.094;-1.690;2023-09-30T03:33:59;49.19;41.30;59.66;;
41518;Laerm;27249;48.094;-1.690;2023-09-30T03:36:25;50.54;40.89;65.86;;
41518;Laerm;27249;48.094;-1.690;2023-09-30T03:38:51;49.41;40.71;60.12;;
41518;Laerm;27249;48.094;-1.690;2023-09-30T03:41:20;45.97;41.38;57.98;;
41518;Laerm;27249;48.094;-1.690;2023-09-30T03:43:45;51.22;41.96;63.30;;
41518;Laerm;27249;48.094;-1.690;2023-09-30T03:46:12;46.60;41.89;56.30;;
41518;Laerm;27249;48.094;-1.690;2023-09-30T03:48:37;49.38;41.38;62.15;;
41518;Laerm;27249;48.094;-1.690;2023-09-30T03:51:08;51.71;41.38;66.02;;
41518;Laerm;27249;48.094;-1.690;2023-09-30T03:53:33;51.00;42.22;61.07;;
41518;Laerm;27249;48.094;-1.690;2023-09-30T03:55:58;50.62;41.14;60.26;;
41518;Laerm;27249;48.094;-1.690;2023-09-30T03:58:24;45.56;40.33;56.20;;
41518;Laerm;27249;48.094;-1.690;2023-09-30T04:00:49;48.80;40.43;60.24;;
41518;Laerm;27249;48.094;-1.690;2023-09-30T04:03:16;47.99;40.62;59.18;;
41518;Laerm;27249;48.094;-1.690;2023-09-30T04:05:42;50.20;42.47;67.03;;
41518;Laerm;27249;48.094;-1.690;2023-09-30T04:08:07;49.79;42.16;62.42;;
41518;Laerm;27249;48.094;-1.690;2023-09-30T04:10:32;51.90;42.35;61.17;;
41518;Laerm;27249;48.094;-1.690;2023-09-30T04:12:57;52.79;41.68;66.90;;
41518;Laerm;27249;48.094;-1.690;2023-09-30T04:15:23;51.03;42.76;66.32;;
41518;Laerm;27249;48.094;-1.690;2023-09-30T04:17:48;51.91;41.96;64.41;;
41518;Laerm;27249;48.094;-1.690;2023-09-30T04:20:14;46.76;40.98;59.89;;
41518;Laerm;27249;48.094;-1.690;2023-09-30T04:22:47;51.39;42.53;61.78;;
41518;Laerm;27249;48.094;-1.690;2023-09-30T04:25:13;49.63;41.06;62.87;;
41518;Laerm;27249;48.094;-1.690;2023-09-30T04:27:41;48.49;41.89;58.99;;
41518;Laerm;27249;48.094;-1.690;2023-09-30T04:30:07;50.86;42.09;62.28;;
41518;Laerm;27249;48.094;-1.690;2023-09-30T04:32:37;53.64;41.82;61.58;;
41518;Laerm;27249;48.094;-1.690;2023-09-30T04:35:04;53.38;42.41;65.57;;
41518;Laerm;27249;48.094;-1.690;2023-09-30T04:37:29;46.60;41.14;57.97;;
41518;Laerm;27249;48.094;-1.690;2023-09-30T04:39:54;45.95;42.09;56.41;;
41518;Laerm;27249;48.094;-1.690;2023-09-30T04:42:19;48.74;41.38;61.48;;
41518;Laerm;27249;48.094;-1.690;2023-09-30T04:44:45;52.00;41.22;63.54;;
41518;Laerm;27249;48.094;-1.690;2023-09-30T04:47:10;51.09;42.93;63.85;;
41518;Laerm;27249;48.094;-1.690;2023-09-30T04:49:35;47.91;41.38;58.55;;
41518;Laerm;27249;48.094;-1.690;2023-09-30T04:52:00;48.50;41.38;59.80;;
41518;Laerm;27249;48.094;-1.690;2023-09-30T04:54:26;51.06;41.41;60.14;;
41518;Laerm;27249;48.094;-1.690;2023-09-30T04:56:51;46.89;41.22;57.41;;
41518;Laerm;27249;48.094;-1.690;2023-09-30T04:59:16;47.72;41.89;55.53;;
41518;Laerm;27249;48.094;-1.690;2023-09-30T05:01:41;51.22;40.13;60.96;;
41518;Laerm;27249;48.094;-1.690;2023-09-30T05:04:07;59.07;42.29;75.89;;
41518;Laerm;27249;48.094;-1.690;2023-09-30T05:06:32;52.59;43.44;59.92;;
41518;Laerm;27249;48.094;-1.690;2023-09-30T05:08:57;54.31;42.65;66.65;;
41518;Laerm;27249;48.094;-1.690;2023-09-30T05:11:23;50.57;42.16;61.07;;
41518;Laerm;27249;48.094;-1.690;2023-09-30T05:13:48;50.80;42.35;60.22;;
41518;Laerm;27249;48.094;-1.690;2023-09-30T05:16:13;53.68;42.22;65.78;;
41518;Laerm;27249;48.094;-1.690;2023-09-30T05:18:38;51.85;44.43;62.87;;
41518;Laerm;27249;48.094;-1.690;2023-09-30T05:21:04;54.38;42.41;66.36;;
41518;Laerm;27249;48.094;-1.690;2023-09-30T05:23:29;50.08;41.22;63.25;;
41518;Laerm;27249;48.094;-1.690;2023-09-30T05:25:54;52.58;41.96;62.52;;
41518;Laerm;27249;48.094;-1.690;2023-09-30T05:28:20;49.01;41.89;62.11;;
41518;Laerm;27249;48.094;-1.690;2023-09-30T05:30:45;50.43;41.68;67.70;;
41518;Laerm;27249;48.094;-1.690;2023-09-30T05:33:10;50.07;41.53;61.09;;
41518;Laerm;27249;48.094;-1.690;2023-09-30T05:35:39;50.36;41.82;61.41;;
41518;Laerm;27249;48.094;-1.690;2023-09-30T05:38:06;48.95;42.82;58.29;;
41518;Laerm;27249;48.094;-1.690;2023-09-30T05:40:31;51.06;43.19;66.64;;
41518;Laerm;27249;48.094;-1.690;2023-09-30T05:42:57;51.54;42.22;60.85;;
41518;Laerm;27249;48.094;-1.690;2023-09-30T05:45:25;50.92;41.53;60.67;;
41518;Laerm;27249;48.094;-1.690;2023-09-30T05:47:51;49.68;42.16;59.52;;
41518;Laerm;27249;48.094;-1.690;2023-09-30T05:50:20;50.14;41.89;60.07;;
41518;Laerm;27249;48.094;-1.690;2023-09-30T05:52:49;56.29;43.72;70.94;;
41518;Laerm;27249;48.094;-1.690;2023-09-30T05:55:15;54.17;43.04;69.53;;
41518;Laerm;27249;48.094;-1.690;2023-09-30T05:57:41;63.25;43.29;87.51;;
41518;Laerm;27249;48.094;-1.690;2023-09-30T06:00:07;53.44;43.90;61.50;;
41518;Laerm;27249;48.094;-1.690;2023-09-30T06:02:39;50.64;41.96;61.19;;
41518;Laerm;27249;48.094;-1.690;2023-09-30T06:05:05;52.31;42.76;60.96;;
41518;Laerm;27249;48.094;-1.690;2023-09-30T06:07:30;54.24;43.77;63.95;;
41518;Laerm;27249;48.094;-1.690;2023-09-30T06:09:55;53.52;45.75;61.01;;
41518;Laerm;27249;48.094;-1.690;2023-09-30T06:12:21;53.03;43.68;64.34;;
41518;Laerm;27249;48.094;-1.690;2023-09-30T06:14:46;52.63;43.34;61.61;;
41518;Laerm;27249;48.094;-1.690;2023-09-30T06:17:11;57.29;44.62;80.19;;
41518;Laerm;27249;48.094;-1.690;2023-09-30T06:19:36;54.65;42.93;70.92;;
41518;Laerm;27249;48.094;-1.690;2023-09-30T06:22:02;53.33;43.90;61.56;;
41518;Laerm;27249;48.094;-1.690;2023-09-30T06:24:28;52.76;43.04;59.70;;
41518;Laerm;27249;48.094;-1.690;2023-09-30T06:26:53;52.20;42.76;62.60;;
41518;Laerm;27249;48.094;-1.690;2023-09-30T06:29:18;50.53;43.63;63.47;;
41518;Laerm;27249;48.094;-1.690;2023-09-30T06:31:44;54.26;44.83;62.42;;
41518;Laerm;27249;48.094;-1.690;2023-09-30T06:34:09;54.41;45.07;62.64;;
41518;Laerm;27249;48.094;-1.690;2023-09-30T06:36:36;54.54;44.62;65.24;;
41518;Laerm;27249;48.094;-1.690;2023-09-30T06:39:02;55.27;44.31;64.03;;
41518;Laerm;27249;48.094;-1.690;2023-09-30T06:41:30;54.52;45.01;67.86;;
41518;Laerm;27249;48.094;-1.690;2023-09-30T06:43:55;54.20;48.15;61.75;;
41518;Laerm;27249;48.094;-1.690;2023-09-30T06:46:21;55.78;44.87;67.70;;
41518;Laerm;27249;48.094;-1.690;2023-09-30T06:48:49;56.14;45.77;65.65;;
41518;Laerm;27249;48.094;-1.690;2023-09-30T06:51:17;56.71;46.82;74.03;;
41518;Laerm;27249;48.094;-1.690;2023-09-30T06:53:42;57.03;49.84;64.25;;
41518;Laerm;27249;48.094;-1.690;2023-09-30T06:56:08;56.62;48.90;65.58;;
41518;Laerm;27249;48.094;-1.690;2023-09-30T06:58:33;56.79;44.94;67.43;;
41518;Laerm;27249;48.094;-1.690;2023-09-30T07:00:58;55.93;47.12;75.92;;
41518;Laerm;27249;48.094;-1.690;2023-09-30T07:03:24;55.54;46.50;69.76;;
41518;Laerm;27249;48.094;-1.690;2023-09-30T07:05:49;53.97;45.66;69.47;;
41518;Laerm;27249;48.094;-1.690;2023-09-30T07:08:18;55.43;45.75;66.46;;
41518;Laerm;27249;48.094;-1.690;2023-09-30T07:10:44;54.47;45.04;69.28;;
41518;Laerm;27249;48.094;-1.690;2023-09-30T07:13:11;55.18;44.52;64.13;;
41518;Laerm;27249;48.094;-1.690;2023-09-30T07:15:36;53.75;44.80;62.96;;
41518;Laerm;27249;48.094;-1.690;2023-09-30T07:18:01;54.79;45.11;64.43;;
41518;Laerm;27249;48.094;-1.690;2023-09-30T07:20:27;57.84;47.96;66.18;;
41518;Laerm;27249;48.094;-1.690;2023-09-30T07:22:53;55.96;46.40;64.39;;
41518;Laerm;27249;48.094;-1.690;2023-09-30T07:25:18;56.21;45.45;64.56;;
41518;Laerm;27249;48.094;-1.690;2023-09-30T07:27:44;54.75;46.59;63.26;;
41518;Laerm;27249;48.094;-1.690;2023-09-30T07:30:10;57.04;51.29;62.90;;
41518;Laerm;27249;48.094;-1.690;2023-09-30T07:32:37;54.54;46.01;65.21;;
41518;Laerm;27249;48.094;-1.690;2023-09-30T07:35:02;54.21;46.69;63.66;;
41518;Laerm;27249;48.094;-1.690;2023-09-30T07:37:28;56.00;49.57;62.30;;
41518;Laerm;27249;48.094;-1.690;2023-09-30T07:39:53;56.56;49.29;64.38;;
41518;Laerm;27249;48.094;-1.690;2023-09-30T07:42:19;55.05;47.14;62.37;;
41518;Laerm;27249;48.094;-1.690;2023-09-30T07:44:44;55.82;50.80;62.40;;
41518;Laerm;27249;48.094;-1.690;2023-09-30T07:47:09;55.53;47.14;61.94;;
41518;Laerm;27249;48.094;-1.690;2023-09-30T07:49:34;56.58;49.30;66.38;;
41518;Laerm;27249;48.094;-1.690;2023-09-30T07:52:00;56.60;49.72;65.95;;
41518;Laerm;27249;48.094;-1.690;2023-09-30T07:54:25;55.08;44.97;61.76;;
41518;Laerm;27249;48.094;-1.690;2023-09-30T07:56:51;56.59;50.41;68.45;;
41518;Laerm;27249;48.094;-1.690;2023-09-30T07:59:16;55.05;44.34;65.11;;
41518;Laerm;27249;48.094;-1.690;2023-09-30T08:01:42;55.95;45.17;65.76;;
41518;Laerm;27249;48.094;-1.690;2023-09-30T08:04:08;55.45;48.67;62.14;;
41518;Laerm;27249;48.094;-1.690;2023-09-30T08:06:33;54.89;47.55;60.88;;
41518;Laerm;27249;48.094;-1.690;2023-09-30T08:08:58;56.39;48.71;63.50;;
41518;Laerm;27249;48.094;-1.690;2023-09-30T08:11:23;57.00;47.98;66.25;;
41518;Laerm;27249;48.094;-1.690;2023-09-30T08:13:52;57.88;47.98;85.39;;
41518;Laerm;27249;48.094;-1.690;2023-09-30T08:16:18;56.71;46.50;72.13;;
41518;Laerm;27249;48.094;-1.690;2023-09-30T08:18:44;56.31;49.58;62.33;;
41518;Laerm;27249;48.094;-1.690;2023-09-30T08:21:09;56.62;47.67;69.33;;
41518;Laerm;27249;48.094;-1.690;2023-09-30T08:23:36;56.94;50.15;62.77;;
41518;Laerm;27249;48.094;-1.690;2023-09-30T08:26:01;54.69;47.08;65.57;;
41518;Laerm;27249;48.094;-1.690;2023-09-30T08:28:26;56.38;49.03;61.38;;
41518;Laerm;27249;48.094;-1.690;2023-09-30T08:30:51;55.85;49.00;65.97;;
41518;Laerm;27249;48.094;-1.690;2023-09-30T08:33:19;56.94;48.37;63.75;;
41518;Laerm;27249;48.094;-1.690;2023-09-30T08:35:44;56.90;50.72;65.40;;
41518;Laerm;27249;48.094;-1.690;2023-09-30T08:38:10;56.06;47.73;70.37;;
41518;Laerm;27249;48.094;-1.690;2023-09-30T08:40:35;56.10;48.52;65.84;;
41518;Laerm;27249;48.094;-1.690;2023-09-30T08:43:00;55.08;48.43;63.50;;
41518;Laerm;27249;48.094;-1.690;2023-09-30T08:45:29;54.79;47.32;64.61;;
41518;Laerm;27249;48.094;-1.690;2023-09-30T08:47:56;55.63;46.13;63.32;;
41518;Laerm;27249;48.094;-1.690;2023-09-30T08:50:21;55.96;50.37;61.28;;
41518;Laerm;27249;48.094;-1.690;2023-09-30T08:52:47;57.28;47.95;64.17;;
41518;Laerm;27249;48.094;-1.690;2023-09-30T08:55:14;57.87;50.10;70.40;;
41518;Laerm;27249;48.094;-1.690;2023-09-30T08:57:42;55.89;46.69;65.30;;
41518;Laerm;27249;48.094;-1.690;2023-09-30T09:00:08;55.06;48.55;61.83;;
41518;Laerm;27249;48.094;-1.690;2023-09-30T09:02:36;55.97;50.20;62.04;;
41518;Laerm;27249;48.094;-1.690;2023-09-30T09:05:02;55.97;48.45;65.67;;
41518;Laerm;27249;48.094;-1.690;2023-09-30T09:07:27;56.41;48.78;75.44;;
41518;Laerm;27249;48.094;-1.690;2023-09-30T09:10:02;55.77;49.71;67.61;;
41518;Laerm;27249;48.094;-1.690;2023-09-30T09:12:27;55.60;46.55;63.00;;
41518;Laerm;27249;48.094;-1.690;2023-09-30T09:14:53;55.60;47.93;65.38;;
41518;Laerm;27249;48.094;-1.690;2023-09-30T09:17:18;55.89;50.20;61.80;;
41518;Laerm;27249;48.094;-1.690;2023-09-30T09:19:43;56.74;51.11;61.52;;
41518;Laerm;27249;48.094;-1.690;2023-09-30T09:22:08;55.87;50.38;65.85;;
41518;Laerm;27249;48.094;-1.690;2023-09-30T09:24:35;54.96;47.90;62.66;;
41518;Laerm;27249;48.094;-1.690;2023-09-30T09:27:03;56.73;49.16;68.54;;
41518;Laerm;27249;48.094;-1.690;2023-09-30T09:29:29;54.65;48.00;61.35;;
41518;Laerm;27249;48.094;-1.690;2023-09-30T09:31:54;55.98;49.62;70.30;;
41518;Laerm;27249;48.094;-1.690;2023-09-30T09:34:31;54.76;45.94;68.95;;
41518;Laerm;27249;48.094;-1.690;2023-09-30T09:36:56;55.74;48.71;63.24;;
41518;Laerm;27249;48.094;-1.690;2023-09-30T09:39:29;56.07;49.92;62.42;;
41518;Laerm;27249;48.094;-1.690;2023-09-30T09:41:55;62.43;48.83;89.79;;
41518;Laerm;27249;48.094;-1.690;2023-09-30T09:44:26;56.76;50.61;65.32;;
41518;Laerm;27249;48.094;-1.690;2023-09-30T09:46:51;57.05;51.73;65.04;;
41518;Laerm;27249;48.094;-1.690;2023-09-30T09:49:17;54.46;49.20;63.16;;
41518;Laerm;27249;48.094;-1.690;2023-09-30T09:51:47;56.06;47.00;65.85;;
41518;Laerm;27249;48.094;-1.690;2023-09-30T09:54:13;55.45;49.63;61.30;;
41518;Laerm;27249;48.094;-1.690;2023-09-30T09:56:39;54.68;47.67;70.23;;
41518;Laerm;27249;48.094;-1.690;2023-09-30T09:59:04;55.89;47.93;63.55;;
41518;Laerm;27249;48.094;-1.690;2023-09-30T10:01:30;56.46;47.30;62.03;;
41518;Laerm;27249;48.094;-1.690;2023-09-30T10:03:56;55.88;48.60;61.61;;
41518;Laerm;27249;48.094;-1.690;2023-09-30T10:06:21;55.37;50.07;63.96;;
41518;Laerm;27249;48.094;-1.690;2023-09-30T10:08:48;56.24;49.21;65.86;;
41518;Laerm;27249;48.094;-1.690;2023-09-30T10:11:16;54.90;48.57;61.26;;
41518;Laerm;27249;48.094;-1.690;2023-09-30T10:13:55;55.39;48.15;64.11;;
41518;Laerm;27249;48.094;-1.690;2023-09-30T10:19:10;55.59;48.34;63.96;;
41518;Laerm;27249;48.094;-1.690;2023-09-30T10:21:36;55.26;45.77;65.37;;
41518;Laerm;27249;48.094;-1.690;2023-09-30T10:26:46;55.25;48.54;65.77;;
41518;Laerm;27249;48.094;-1.690;2023-09-30T10:29:11;54.76;47.68;62.28;;
41518;Laerm;27249;48.094;-1.690;2023-09-30T10:31:49;55.63;47.32;69.90;;
41518;Laerm;27249;48.094;-1.690;2023-09-30T10:34:17;55.61;47.63;66.73;;
41518;Laerm;27249;48.094;-1.690;2023-09-30T10:36:44;57.92;49.49;71.60;;
41518;Laerm;27249;48.094;-1.690;2023-09-30T10:39:11;54.94;49.35;60.50;;
41518;Laerm;27249;48.094;-1.690;2023-09-30T10:46:47;55.73;48.10;61.81;;
41518;Laerm;27249;48.094;-1.690;2023-09-30T10:49:16;55.81;49.46;64.06;;
41518;Laerm;27249;48.094;-1.690;2023-09-30T10:51:44;56.27;49.84;62.77;;
41518;Laerm;27249;48.094;-1.690;2023-09-30T10:54:11;55.36;44.47;65.57;;
41518;Laerm;27249;48.094;-1.690;2023-09-30T10:56:37;55.59;49.16;63.23;;
41518;Laerm;27249;48.094;-1.690;2023-09-30T10:59:02;55.44;49.19;62.07;;
41518;Laerm;27249;48.094;-1.690;2023-09-30T11:01:31;54.74;47.96;64.54;;
41518;Laerm;27249;48.094;-1.690;2023-09-30T11:04:01;54.59;47.70;61.48;;
41518;Laerm;27249;48.094;-1.690;2023-09-30T11:06:28;54.34;47.61;64.52;;
41518;Laerm;27249;48.094;-1.690;2023-09-30T11:08:57;55.63;48.13;63.31;;
41518;Laerm;27249;48.094;-1.690;2023-09-30T11:11:41;56.01;49.59;62.82;;
41518;Laerm;27249;48.094;-1.690;2023-09-30T11:16:49;55.36;45.89;63.12;;
41518;Laerm;27249;48.094;-1.690;2023-09-30T11:19:15;55.41;47.83;67.25;;
41518;Laerm;27249;48.094;-1.690;2023-09-30T11:21:40;55.57;47.24;66.15;;
41518;Laerm;27249;48.094;-1.690;2023-09-30T11:24:06;55.36;46.07;63.12;;
41518;Laerm;27249;48.094;-1.690;2023-09-30T11:26:32;59.55;45.11;81.16;;
41518;Laerm;27249;48.094;-1.690;2023-09-30T11:29:04;55.73;48.18;64.23;;
41518;Laerm;27249;48.094;-1.690;2023-09-30T11:31:29;54.70;44.07;62.71;;
41518;Laerm;27249;48.094;-1.690;2023-09-30T11:33:58;55.69;50.06;65.06;;
41518;Laerm;27249;48.094;-1.690;2023-09-30T11:36:28;55.54;46.64;62.21;;
41518;Laerm;27249;48.094;-1.690;2023-09-30T11:38:53;56.20;48.42;64.22;;
41518;Laerm;27249;48.094;-1.690;2023-09-30T11:41:20;55.27;48.26;65.00;;
41518;Laerm;27249;48.094;-1.690;2023-09-30T11:46:30;54.68;46.59;61.78;;
41518;Laerm;27249;48.094;-1.690;2023-09-30T11:48:59;56.12;46.35;64.37;;
41518;Laerm;27249;48.094;-1.690;2023-09-30T11:51:25;55.09;47.50;63.99;;
41518;Laerm;27249;48.094;-1.690;2023-09-30T11:53:51;58.62;45.11;79.04;;
41518;Laerm;27249;48.094;-1.690;2023-09-30T11:56:18;54.53;45.54;66.19;;
41518;Laerm;27249;48.094;-1.690;2023-09-30T11:58:43;56.52;49.73;63.35;;
41518;Laerm;27249;48.094;-1.690;2023-09-30T12:01:09;54.93;44.83;62.30;;
41518;Laerm;27249;48.094;-1.690;2023-09-30T12:03:38;54.47;47.44;61.16;;
41518;Laerm;27249;48.094;-1.690;2023-09-30T12:06:05;54.34;45.17;63.37;;
41518;Laerm;27249;48.094;-1.690;2023-09-30T12:08:30;56.47;47.57;64.44;;
41518;Laerm;27249;48.094;-1.690;2023-09-30T12:10:55;54.48;44.62;61.60;;
41518;Laerm;27249;48.094;-1.690;2023-09-30T12:13:21;55.63;48.21;64.77;;
41518;Laerm;27249;48.094;-1.690;2023-09-30T12:15:46;56.81;48.51;66.21;;
41518;Laerm;27249;48.094;-1.690;2023-09-30T12:18:11;56.06;48.12;62.79;;
41518;Laerm;27249;48.094;-1.690;2023-09-30T12:20:41;54.08;45.14;63.38;;
41518;Laerm;27249;48.094;-1.690;2023-09-30T12:23:07;55.43;48.83;62.43;;
41518;Laerm;27249;48.094;-1.690;2023-09-30T12:25:33;53.61;46.40;62.20;;
41518;Laerm;27249;48.094;-1.690;2023-09-30T12:27:58;55.44;45.94;62.87;;
41518;Laerm;27249;48.094;-1.690;2023-09-30T12:30:24;55.01;45.04;63.40;;
41518;Laerm;27249;48.094;-1.690;2023-09-30T12:32:49;54.57;47.23;62.52;;
41518;Laerm;27249;48.094;-1.690;2023-09-30T12:35:14;55.29;45.11;64.60;;
41518;Laerm;27249;48.094;-1.690;2023-09-30T12:37:39;54.01;44.87;64.80;;
41518;Laerm;27249;48.094;-1.690;2023-09-30T12:40:05;54.84;44.23;72.45;;
41518;Laerm;27249;48.094;-1.690;2023-09-30T12:42:32;54.36;45.42;63.86;;
41518;Laerm;27249;48.094;-1.690;2023-09-30T12:44:59;55.89;47.72;62.27;;
41518;Laerm;27249;48.094;-1.690;2023-09-30T12:47:24;56.09;47.83;63.75;;
41518;Laerm;27249;48.094;-1.690;2023-09-30T12:49:50;54.59;46.66;60.34;;
41518;Laerm;27249;48.094;-1.690;2023-09-30T12:52:16;55.34;43.49;64.86;;
41518;Laerm;27249;48.094;-1.690;2023-09-30T12:54:42;56.45;47.98;66.10;;
41518;Laerm;27249;48.094;-1.690;2023-09-30T12:57:07;55.27;46.95;64.81;;
41518;Laerm;27249;48.094;-1.690;2023-09-30T12:59:32;54.72;45.89;60.89;;
41518;Laerm;27249;48.094;-1.690;2023-09-30T13:01:59;56.55;48.52;70.14;;
41518;Laerm;27249;48.094;-1.690;2023-09-30T13:04:24;55.80;49.73;63.64;;
41518;Laerm;27249;48.094;-1.690;2023-09-30T13:06:51;53.85;45.97;61.10;;
41518;Laerm;27249;48.094;-1.690;2023-09-30T13:09:16;54.51;48.12;64.20;;
41518;Laerm;27249;48.094;-1.690;2023-09-30T13:11:41;54.00;45.51;60.96;;
41518;Laerm;27249;48.094;-1.690;2023-09-30T13:14:07;54.42;48.71;64.50;;
41518;Laerm;27249;48.094;-1.690;2023-09-30T13:16:32;55.75;47.55;66.84;;
41518;Laerm;27249;48.094;-1.690;2023-09-30T13:18:57;58.45;50.03;76.07;;
41518;Laerm;27249;48.094;-1.690;2023-09-30T13:21:22;55.32;45.89;63.99;;
41518;Laerm;27249;48.094;-1.690;2023-09-30T13:23:48;54.72;45.88;63.08;;
41518;Laerm;27249;48.094;-1.690;2023-09-30T13:26:13;54.84;44.65;63.97;;
41518;Laerm;27249;48.094;-1.690;2023-09-30T13:28:38;55.17;46.38;61.07;;
41518;Laerm;27249;48.094;-1.690;2023-09-30T13:31:04;54.00;47.65;63.43;;
41518;Laerm;27249;48.094;-1.690;2023-09-30T13:33:30;57.47;46.87;71.84;;
41518;Laerm;27249;48.094;-1.690;2023-09-30T13:35:55;54.08;46.73;62.20;;
41518;Laerm;27249;48.094;-1.690;2023-09-30T13:38:20;55.29;45.75;65.30;;
41518;Laerm;27249;48.094;-1.690;2023-09-30T13:40:46;53.42;45.89;59.14;;
41518;Laerm;27249;48.094;-1.690;2023-09-30T13:43:11;55.10;47.57;64.12;;
41518;Laerm;27249;48.094;-1.690;2023-09-30T13:45:36;65.70;50.11;84.09;;